Time;durP1;ratioP1;P1;durP2;ratioP2;P2;SDS_P1;SDS_P2;PMS_P1;PMS_P2;Temp;Humidity;BMP_temperature;BMP_pressure;BME280_temperature;BME280_humidity;BME280_pressure;Samples;Min_cycle;Max_cycle;Signal;HPM_P1;HPM_P2
2023/03/10 00:01:26;;;;;;;53.90;25.88;;;0.90;99.90;;;-0.91;100.00;99266.09;4948837;28;20037;-78
2023/03/10 00:03:56;;;;;;;60.03;27.73;;;0.80;99.90;;;-0.93;100.00;99270.47;4951651;28;20037;-80
2023/03/10 00:06:25;;;;;;;56.88;27.73;;;0.90;99.90;;;-0.81;100.00;99266.75;4954415;28;20067;-79
2023/03/10 00:08:51;;;;;;;57.92;28.95;;;0.90;99.90;;;-0.77;100.00;99252.03;4965227;28;20405;-79
2023/03/10 00:11:17;;;;;;;58.53;27.75;;;1.00;99.90;;;-0.77;100.00;99255.44;4987465;28;20500;-79
2023/03/10 00:13:51;;;;;;;60.63;27.65;;;1.00;99.90;;;-0.72;100.00;99245.84;5018261;28;20042;-80
2023/03/10 00:16:29;;;;;;;55.22;27.45;;;1.00;99.90;;;-0.79;100.00;99235.69;4999926;28;20086;-79
2023/03/10 00:18:56;;;;;;;57.47;27.55;;;0.90;99.90;;;-0.88;100.00;99231.59;4999040;28;20041;-79
2023/03/10 00:21:29;;;;;;;60.03;30.30;;;1.00;99.90;;;-0.71;100.00;99229.44;4981812;28;20041;-79
2023/03/10 00:23:58;;;;;;;56.85;28.25;;;1.00;99.90;;;-0.73;100.00;99223.47;4969214;28;20036;-80
2023/03/10 00:26:26;;;;;;;61.58;30.17;;;1.00;99.90;;;-0.80;100.00;99216.72;4965010;28;20064;-80
2023/03/10 00:28:53;;;;;;;70.65;32.60;;;1.00;99.90;;;-0.83;100.00;99201.31;4950382;28;20033;-81
2023/03/10 00:31:27;;;;;;;63.10;31.02;;;1.00;99.90;;;-0.81;100.00;99209.88;4946455;28;20530;-80
2023/03/10 00:33:55;;;;;;;64.10;32.00;;;1.00;99.90;;;-0.73;100.00;99196.78;4960245;28;20051;-79
2023/03/10 00:36:25;;;;;;;67.40;31.60;;;1.00;99.90;;;-0.75;100.00;99191.63;4968348;28;20585;-79
2023/03/10 00:38:55;;;;;;;56.45;25.60;;;1.00;99.90;;;-0.86;100.00;99186.75;4993973;28;20425;-80
2023/03/10 00:41:25;;;;;;;52.42;24.33;;;0.90;99.90;;;-1.04;100.00;99189.75;4947739;28;20037;-79
2023/03/10 00:43:57;;;;;;;65.75;29.83;;;0.90;99.90;;;-0.94;100.00;99180.91;4995006;28;20021;-80
2023/03/10 00:46:25;;;;;;;58.60;29.15;;;;;;;-0.86;100.00;99175.56;4975844;28;20041;-80
2023/03/10 00:48:51;;;;;;;53.15;24.65;;;0.20;99.90;;;-0.98;100.00;99165.53;5013591;28;20093;-80
2023/03/10 00:51:27;;;;;;;66.00;26.83;;;0.90;99.90;;;-0.89;100.00;99183.38;4971115;28;20045;-79
2023/03/10 00:53:53;;;;;;;52.60;23.58;;;0.90;99.90;;;-1.08;100.00;99172.63;4972685;28;20037;-81
2023/03/10 00:56:30;;;;;;;68.55;33.65;;;0.80;99.90;;;-0.98;100.00;99160.34;5008387;28;20080;-81
2023/03/10 00:58:59;;;;;;;52.22;25.13;;;0.90;99.90;;;-0.94;100.00;99155.06;4995104;28;20038;-79
2023/03/10 01:01:38;;;;;;;77.40;36.00;;;0.90;99.90;;;-0.87;100.00;99150.59;4923974;28;20041;-81
2023/03/10 01:04:17;;;;;;;48.20;21.08;;;0.90;99.90;;;-0.97;100.00;99146.53;4962845;28;20041;-80
2023/03/10 01:06:46;;;;;;;68.03;33.08;;;0.90;99.90;;;-0.90;100.00;99143.75;4971583;28;20033;-81
2023/03/10 01:09:18;;;;;;;62.28;26.02;;;0.90;99.90;;;-0.88;100.00;99151.50;4953113;28;20032;-80
2023/03/10 01:11:44;;;;;;;72.47;35.90;;;0.90;99.90;;;-0.79;100.00;99151.25;4975898;28;20063;-80
2023/03/10 01:14:14;;;;;;;80.65;35.50;;;0.90;99.90;;;-0.93;100.00;99142.97;4962954;28;20033;-80
2023/03/10 01:16:45;;;;;;;82.15;37.42;;;0.90;99.90;;;-0.85;100.00;99141.91;4967703;28;20033;-80
2023/03/10 01:19:11;;;;;;;66.38;30.75;;;1.00;99.90;;;-0.87;100.00;99135.91;4983871;28;20044;-79
2023/03/10 01:21:38;;;;;;;81.82;37.35;;;0.90;99.90;;;-0.76;100.00;99137.41;4951860;28;20075;-81
2023/03/10 01:24:06;;;;;;;84.80;37.00;;;1.00;99.90;;;-0.71;100.00;99135.56;4993014;28;20041;-81
2023/03/10 01:26:39;;;;;;;88.28;38.65;;;1.00;99.90;;;-0.77;100.00;99127.97;5004844;28;20106;-80
2023/03/10 01:29:04;;;;;;;81.20;38.70;;;1.00;99.90;;;-0.75;100.00;99132.19;4972814;28;20127;-80
2023/03/10 01:31:30;;;;;;;89.95;38.03;;;1.00;99.90;;;-0.74;100.00;99125.28;4970762;28;20322;-79
2023/03/10 01:33:56;;;;;;;69.43;30.88;;;1.00;99.90;;;-0.92;100.00;99113.69;4982093;28;20714;-80
2023/03/10 01:36:29;;;;;;;88.20;37.83;;;1.00;99.90;;;-0.78;100.00;99110.75;4988255;28;20036;-80
2023/03/10 01:38:56;;;;;;;79.82;38.03;;;0.90;99.90;;;-0.89;100.00;99105.84;4935352;28;20053;-78
2023/03/10 01:41:24;;;;;;;78.00;37.70;;;0.90;99.90;;;-0.90;100.00;99097.25;4947430;28;20474;-81
2023/03/10 01:43:55;;;;;;;88.00;38.22;;;1.00;99.90;;;-0.78;100.00;99096.06;4981977;28;20033;-80
2023/03/10 01:46:49;;;;;;;85.60;39.05;;;1.00;99.90;;;-0.72;100.00;99093.31;4976137;28;20048;-79
2023/03/10 01:49:27;;;;;;;88.05;38.78;;;1.00;99.90;;;-0.74;100.00;99083.94;4956877;28;20033;-80
2023/03/10 01:52:25;;;;;;;75.43;34.70;;;0.90;99.90;;;-0.86;100.00;99079.94;5002597;28;20062;-82
2023/03/10 01:54:59;;;;;;;88.78;36.75;;;0.90;99.90;;;-0.87;100.00;99075.66;4979082;28;20054;-83
2023/03/10 01:57:40;;;;;;;82.10;38.05;;;1.00;99.90;;;-0.74;100.00;99078.75;4986692;28;20064;-81
2023/03/10 02:00:17;;;;;;;84.38;39.88;;;1.00;99.90;;;-0.73;100.00;99073.56;5007541;28;20065;-80
2023/03/10 02:03:27;;;;;;;68.10;28.80;;;1.00;99.90;;;-0.82;100.00;99063.47;4958075;28;20127;-81
2023/03/10 02:06:07;;;;;;;82.72;37.35;;;0.90;99.90;;;-0.87;100.00;99060.97;5007200;28;20046;-81
2023/03/10 02:08:48;;;;;;;88.30;38.85;;;0.90;99.90;;;-0.83;100.00;99059.19;4962525;28;20049;-79
2023/03/10 02:11:14;;;;;;;84.05;38.63;;;1.00;99.90;;;-0.74;100.00;99058.06;4971442;28;20061;-80
2023/03/10 02:13:40;;;;;;;89.07;36.03;;;0.90;99.90;;;-0.92;100.00;99046.50;4967508;28;20038;-80
2023/03/10 02:16:15;;;;;;;79.95;31.58;;;0.90;99.90;;;-0.90;100.00;99044.72;4945907;28;20047;-80
2023/03/10 02:18:45;;;;;;;94.53;38.10;;;0.90;99.90;;;-0.95;100.00;99044.00;4945934;28;20030;-80
2023/03/10 02:21:21;;;;;;;82.03;32.85;;;0.90;99.90;;;-0.93;100.00;99040.50;5016345;28;20056;-80
2023/03/10 02:24:01;;;;;;;89.55;39.20;;;0.90;99.90;;;-0.81;100.00;99028.13;4973147;28;20041;-80
2023/03/10 02:27:25;;;;;;;87.13;36.72;;;0.90;99.90;;;-0.78;100.00;99025.44;5020118;28;20041;-80
2023/03/10 02:30:12;;;;;;;77.30;31.73;;;0.90;99.90;;;-1.01;100.00;99015.75;4895645;29;21461;-80
2023/03/10 02:32:53;;;;;;;72.80;29.17;;;0.80;99.90;;;-0.95;100.00;99015.56;4967263;28;20425;-80
2023/03/10 02:35:24;;;;;;;83.90;39.08;;;0.90;99.90;;;-0.92;100.00;99016.34;4991557;28;20037;-80
2023/03/10 02:37:50;;;;;;;92.60;40.33;;;0.90;99.90;;;-0.79;100.00;99010.84;4973806;28;20054;-81
2023/03/10 02:40:46;;;;;;;92.97;39.28;;;0.90;99.90;;;-0.90;100.00;99005.97;4951957;28;21087;-79
2023/03/10 02:43:25;;;;;;;90.00;34.63;;;0.90;99.90;;;-0.91;100.00;99001.69;4989604;28;20266;-80
2023/03/10 02:45:54;;;;;;;100.70;39.42;;;0.90;99.90;;;-0.90;100.00;99003.38;4936182;28;20047;-82
2023/03/10 02:48:31;;;;;;;92.72;35.65;;;0.90;99.90;;;-0.89;100.00;98989.56;4929114;28;20021;-79
2023/03/10 02:50:59;;;;;;;99.70;41.55;;;0.80;99.90;;;-0.90;100.00;98990.47;4963583;28;20123;-79
2023/03/10 02:53:34;;;;;;;93.97;35.78;;;0.90;99.90;;;-0.95;100.00;98971.66;4942227;28;20049;-80
2023/03/10 02:56:00;;;;;;;92.75;41.30;;;0.90;99.90;;;-0.85;100.00;98973.09;4960432;28;20112;-80
2023/03/10 02:58:29;;;;;;;96.63;39.35;;;0.90;99.90;;;-0.85;100.00;98970.50;4963180;28;20088;-79
2023/03/10 03:01:06;;;;;;;101.78;41.40;;;0.90;99.90;;;-0.80;100.00;98962.63;4943600;28;20033;-81
2023/03/10 03:03:33;;;;;;;92.00;38.67;;;0.90;99.90;;;-0.98;100.00;98948.50;4954913;28;20027;-79
2023/03/10 03:06:07;;;;;;;102.57;39.60;;;0.80;99.90;;;-1.07;100.00;98960.75;4999876;28;20042;-80
2023/03/10 03:08:33;;;;;;;105.22;40.13;;;0.80;99.90;;;-0.96;100.00;98951.88;4960069;28;20037;-80
2023/03/10 03:10:59;;;;;;;100.40;41.40;;;0.80;99.90;;;-0.92;100.00;98950.91;4946221;28;20045;-79
2023/03/10 03:13:25;;;;;;;101.68;39.22;;;0.90;99.90;;;-0.90;100.00;98949.13;4921317;28;20038;-80
2023/03/10 03:15:58;;;;;;;75.05;32.78;;;0.80;99.90;;;-1.10;100.00;98950.53;4941817;28;20113;-80
2023/03/10 03:18:24;;;;;;;97.65;42.60;;;0.70;99.90;;;-1.00;100.00;98953.69;4985517;28;20054;-80
2023/03/10 03:20:50;;;;;;;94.63;39.95;;;0.80;99.90;;;-0.93;100.00;98947.47;4966490;28;20044;-78
2023/03/10 03:23:16;;;;;;;90.90;40.83;;;0.80;99.90;;;-0.85;100.00;98939.50;4958366;28;20563;-80
2023/03/10 03:25:42;;;;;;;103.63;40.45;;;0.80;99.90;;;-0.76;100.00;98944.41;4970503;28;20038;-80
2023/03/10 03:28:15;;;;;;;111.90;42.85;;;0.90;99.90;;;-0.74;100.00;98929.69;4956318;28;20120;-80
2023/03/10 03:30:44;;;;;;;92.10;35.90;;;0.90;99.90;;;-0.81;100.00;98930.78;4957354;28;20045;-78
2023/03/10 03:33:10;;;;;;;84.63;38.35;;;0.90;99.90;;;-0.98;100.00;98920.06;4992420;28;20037;-80
2023/03/10 03:35:40;;;;;;;83.05;35.38;;;0.80;99.90;;;-0.99;100.00;98919.22;5001018;28;20037;-80
2023/03/10 03:38:05;;;;;;;89.25;35.80;;;0.80;99.90;;;-0.96;100.00;98910.53;4981753;28;20026;-79
2023/03/10 03:40:35;;;;;;;86.60;37.72;;;0.80;99.90;;;-0.98;100.00;98912.31;5004473;28;20032;-81
2023/03/10 03:43:11;;;;;;;88.78;38.63;;;0.80;99.90;;;-0.96;100.00;98910.53;4950566;28;20044;-80
2023/03/10 03:45:36;;;;;;;93.40;39.97;;;0.80;99.90;;;-0.85;100.00;98906.75;4954754;28;20042;-79
2023/03/10 03:48:03;;;;;;;90.28;39.33;;;0.90;99.90;;;-0.82;100.00;98900.66;4985241;28;20098;-80
2023/03/10 03:50:29;;;;;;;74.38;30.52;;;0.90;99.90;;;-0.92;100.00;98901.81;5005606;28;20037;-79
2023/03/10 03:53:04;;;;;;;87.30;37.85;;;0.90;99.90;;;-0.85;100.00;98901.56;4962342;28;20120;-79
2023/03/10 03:55:30;;;;;;;89.97;38.17;;;0.90;99.90;;;-0.82;100.00;98898.06;4969757;28;20048;-80
2023/03/10 03:57:56;;;;;;;90.85;38.25;;;0.90;99.90;;;-0.75;100.00;98883.22;4940432;28;20577;-79
2023/03/10 04:00:26;;;;;;;87.97;36.88;;;0.90;99.90;;;-0.80;100.00;98880.75;4972340;28;20038;-80
2023/03/10 04:02:52;;;;;;;86.68;38.13;;;0.90;99.90;;;-0.74;100.00;98875.41;4998673;28;20056;-80
2023/03/10 04:05:18;;;;;;;86.25;35.83;;;0.90;99.90;;;-0.76;100.00;98874.59;4977501;28;20106;-81
2023/03/10 04:07:47;;;;;;;64.80;30.25;;;0.90;99.90;;;-0.84;100.00;98868.84;4974093;28;20077;-80
2023/03/10 04:10:25;;;;;;;51.45;24.63;;;0.90;99.90;;;-0.85;100.00;98867.16;4947343;28;20076;-80
2023/03/10 04:12:51;;;;;;;48.97;20.77;;;0.90;99.90;;;-0.96;100.00;98864.03;4947907;28;20047;-79
2023/03/10 04:15:17;;;;;;;57.22;28.58;;;0.90;99.90;;;-0.91;100.00;98854.41;4978144;28;20553;-80
2023/03/10 04:17:48;;;;;;;45.25;20.35;;;0.80;99.90;;;-1.06;100.00;98864.31;4961726;28;20053;-80
2023/03/10 04:20:14;;;;;;;56.70;26.35;;;0.80;99.90;;;-0.96;100.00;98858.88;4995679;28;20035;-80
2023/03/10 04:22:40;;;;;;;54.75;27.67;;;0.80;99.90;;;-1.03;100.00;98855.63;4959483;28;20032;-81
2023/03/10 04:25:07;;;;;;;59.88;27.77;;;0.80;99.90;;;-0.97;100.00;98859.75;4946643;28;20101;-80
2023/03/10 04:27:42;;;;;;;63.47;29.25;;;0.80;99.90;;;-0.95;100.00;98848.50;4941108;28;20042;-82
2023/03/10 04:30:19;;;;;;;40.58;20.13;;;0.80;99.90;;;-1.15;100.00;98843.91;4995960;28;20033;-80
2023/03/10 04:32:45;;;;;;;61.47;28.92;;;0.80;99.90;;;-1.08;100.00;98835.09;4963316;28;20041;-81
2023/03/10 04:35:12;;;;;;;54.03;27.45;;;0.80;99.90;;;-1.06;100.00;98837.63;4941871;28;20050;-81
2023/03/10 04:37:39;;;;;;;47.75;22.63;;;0.70;99.90;;;-1.08;100.00;98823.91;4940432;28;20030;-79
2023/03/10 04:40:08;;;;;;;55.78;27.27;;;0.70;99.90;;;-1.13;100.00;98824.03;4951150;28;20038;-79
2023/03/10 04:42:36;;;;;;;55.50;27.27;;;0.70;99.90;;;-1.18;100.00;98815.59;4982133;28;20641;-79
2023/03/10 04:45:03;;;;;;;55.95;27.13;;;0.70;99.90;;;-1.01;100.00;98819.41;4953577;28;20045;-79
2023/03/10 04:47:29;;;;;;;58.03;29.13;;;0.70;99.90;;;-1.10;100.00;98820.50;4963825;28;20045;-78
2023/03/10 04:49:55;;;;;;;50.92;25.48;;;0.70;99.90;;;-1.15;100.00;98812.91;4972743;28;20041;-80
2023/03/10 04:52:20;;;;;;;50.15;23.80;;;0.70;99.90;;;-1.04;100.00;98815.16;5008619;28;20035;-80
2023/03/10 04:54:46;;;;;;;49.08;20.67;;;0.70;99.90;;;-1.16;100.00;98807.81;4967054;28;20041;-80
2023/03/10 04:57:23;;;;;;;49.38;25.15;;;0.70;99.90;;;-1.17;100.00;98804.34;4950576;28;20050;-79
2023/03/10 04:59:53;;;;;;;48.13;25.25;;;0.70;99.90;;;-1.12;100.00;98799.91;4957982;28;20037;-79
2023/03/10 05:02:19;;;;;;;54.17;26.33;;;0.70;99.90;;;-1.16;100.00;98806.06;4967394;28;20037;-79
2023/03/10 05:04:45;;;;;;;46.05;22.10;;;0.60;99.90;;;-1.25;100.00;98796.84;4967342;28;20105;-79
2023/03/10 05:07:10;;;;;;;35.17;17.25;;;0.60;99.90;;;-1.28;100.00;98796.91;4968560;28;20038;-81
2023/03/10 05:09:37;;;;;;;45.83;23.52;;;0.60;99.90;;;-1.26;100.00;98789.13;4934683;28;20037;-79
2023/03/10 05:12:05;;;;;;;49.70;25.02;;;0.50;99.90;;;-1.28;100.00;98780.59;4951460;28;20048;-81
2023/03/10 05:14:36;;;;;;;34.90;15.82;;;0.60;99.90;;;-1.31;100.00;98783.28;4963288;28;20426;-80
2023/03/10 05:17:02;;;;;;;42.88;21.05;;;0.50;99.90;;;-1.34;100.00;98778.19;4987529;28;20049;-81
2023/03/10 05:19:28;;;;;;;49.50;26.05;;;0.50;99.90;;;-1.30;100.00;98783.22;4961811;28;20033;-80
2023/03/10 05:21:54;;;;;;;35.10;18.38;;;0.50;99.90;;;-1.31;100.00;98781.53;4950580;28;20042;-80
2023/03/10 05:24:20;;;;;;;46.00;25.27;;;0.50;99.90;;;-1.22;100.00;98774.41;4958448;28;20631;-80
2023/03/10 05:26:51;;;;;;;39.13;18.52;;;0.50;99.90;;;-1.33;100.00;98772.16;4961715;28;20052;-80
2023/03/10 05:29:19;;;;;;;36.05;17.00;;;0.50;99.90;;;-1.42;100.00;98762.94;4980927;28;20038;-80
2023/03/10 05:31:45;;;;;;;33.25;16.05;;;0.50;99.90;;;-1.42;100.00;98762.94;5009498;28;20187;-80
2023/03/10 05:34:15;;;;;;;32.22;13.50;;;0.50;99.90;;;-1.36;100.00;98761.88;4999545;28;20061;-80
2023/03/10 05:36:43;;;;;;;46.15;23.10;;;0.50;99.90;;;-1.33;100.00;98754.91;4950984;28;20026;-80
2023/03/10 05:39:10;;;;;;;31.08;16.15;;;0.50;99.90;;;-1.34;100.00;98754.94;4956981;28;20047;-80
2023/03/10 05:41:36;;;;;;;47.95;24.20;;;0.40;99.90;;;-1.42;100.00;98750.03;4929098;28;20071;-80
2023/03/10 05:44:05;;;;;;;44.35;24.88;;;0.40;99.90;;;-1.41;100.00;98753.44;4957769;28;20026;-80
2023/03/10 05:46:40;;;;;;;46.63;23.42;;;0.40;99.90;;;-1.38;100.00;98754.22;4961809;28;20769;-80
2023/03/10 05:49:06;;;;;;;54.58;28.85;;;0.50;99.90;;;-1.32;100.00;98754.03;4965312;28;20034;-80
2023/03/10 05:51:32;;;;;;;49.63;24.23;;;0.50;99.90;;;-1.29;100.00;98751.34;4960981;28;20033;-80
2023/03/10 05:53:58;;;;;;;41.80;19.83;;;0.50;99.90;;;-1.33;100.00;98754.06;4977730;28;20056;-81
2023/03/10 05:56:34;;;;;;;43.78;21.85;;;0.50;99.90;;;-1.30;100.00;98748.81;4958792;28;20079;-81
2023/03/10 05:59:00;;;;;;;61.33;30.55;;;0.50;99.90;;;-1.25;100.00;98744.38;4959042;28;20040;-79
2023/03/10 06:01:34;;;;;;;65.55;33.15;;;0.60;99.90;;;-1.18;100.00;98745.03;4977581;28;20038;-80
2023/03/10 06:03:59;;;;;;;64.18;30.02;;;0.60;99.90;;;-1.12;100.00;98743.09;4943082;28;20033;-79
2023/03/10 06:06:25;;;;;;;62.95;33.33;;;0.60;99.90;;;-1.18;100.00;98740.69;4951710;28;20039;-80
2023/03/10 06:08:54;;;;;;;42.17;20.45;;;0.60;99.90;;;-1.26;100.00;98743.50;4977471;28;20033;-80
2023/03/10 06:11:28;;;;;;;65.97;33.38;;;0.60;99.90;;;-1.13;100.00;98746.56;4962112;28;20098;-80
2023/03/10 06:13:55;;;;;;;56.65;29.15;;;0.60;99.90;;;-1.21;100.00;98745.94;4965762;28;20587;-80
2023/03/10 06:16:30;;;;;;;58.67;30.52;;;0.60;99.90;;;-1.22;100.00;98733.94;4935959;28;20049;-80
2023/03/10 06:18:56;;;;;;;63.90;32.85;;;0.50;99.90;;;-1.27;100.00;98731.50;4995612;28;20045;-79
2023/03/10 06:21:22;;;;;;;67.82;30.83;;;0.60;99.90;;;-1.19;100.00;98733.81;4992127;28;20057;-81
2023/03/10 06:23:48;;;;;;;43.75;21.40;;;0.60;99.90;;;-1.19;100.00;98726.06;4977715;28;20052;-79
2023/03/10 06:26:21;;;;;;;67.10;32.97;;;0.60;99.90;;;-1.20;100.00;98721.81;4973537;28;20033;-80
2023/03/10 06:28:47;;;;;;;61.15;30.55;;;0.60;99.90;;;-1.24;100.00;98720.22;4962108;28;20055;-80
2023/03/10 06:31:23;;;;;;;66.20;34.47;;;0.60;99.90;;;-1.07;100.00;98722.28;4955905;28;20927;-80
2023/03/10 06:33:50;;;;;;;40.83;20.23;;;0.60;99.90;;;-1.22;100.00;98715.84;4960277;28;20035;-79
2023/03/10 06:36:17;;;;;;;66.90;32.15;;;0.60;99.90;;;-1.12;100.00;98711.25;4959449;28;20046;-79
2023/03/10 06:38:43;;;;;;;36.88;17.40;;;0.70;99.90;;;-1.32;100.00;98706.69;5020233;28;20037;-80
2023/03/10 06:41:09;;;;;;;48.20;22.92;;;0.60;99.90;;;-1.19;100.00;98708.00;4976626;28;20041;-79
2023/03/10 06:43:41;;;;;;;68.25;32.30;;;0.70;99.90;;;-1.17;100.00;98697.63;4959098;28;20091;-79
2023/03/10 06:46:09;;;;;;;51.03;24.25;;;0.70;99.90;;;-1.18;100.00;98704.53;4991157;28;20054;-79
2023/03/10 06:48:37;;;;;;;51.33;25.52;;;0.60;99.90;;;-1.18;100.00;98709.69;4983609;28;20038;-81
2023/03/10 06:51:11;;;;;;;64.38;31.30;;;0.70;99.90;;;-1.07;100.00;98712.78;4964946;28;20148;-80
2023/03/10 06:53:37;;;;;;;66.30;33.65;;;0.70;99.90;;;-1.01;100.00;98706.59;4990125;28;20038;-79
2023/03/10 06:56:06;;;;;;;49.28;23.65;;;0.80;99.90;;;-0.98;100.00;98706.47;4956061;28;20060;-80
2023/03/10 06:58:36;;;;;;;64.95;32.03;;;0.80;99.90;;;-0.85;100.00;98719.84;4980034;28;20046;-79
2023/03/10 07:01:03;;;;;;;63.15;33.40;;;0.80;99.90;;;-0.95;100.00;98713.28;5003651;28;20042;-80
2023/03/10 07:03:29;;;;;;;57.65;29.02;;;0.80;99.90;;;-0.93;100.00;98711.50;5000520;28;20033;-79
2023/03/10 07:05:57;;;;;;;66.75;30.98;;;0.80;99.90;;;-0.93;100.00;98714.09;4951927;28;20053;-79
2023/03/10 07:08:28;;;;;;;64.78;33.97;;;0.80;99.90;;;-0.88;100.00;98714.78;4946984;28;20037;-80
2023/03/10 07:10:55;;;;;;;64.88;30.10;;;0.90;99.90;;;-0.81;100.00;98718.88;4977870;28;20087;-80
2023/03/10 07:13:22;;;;;;;62.25;31.08;;;0.90;99.90;;;-0.79;100.00;98711.91;4972659;28;20060;-79
2023/03/10 07:15:48;;;;;;;57.45;30.58;;;0.90;99.90;;;-0.75;100.00;98717.84;4963374;28;20487;-79
2023/03/10 07:18:26;;;;;;;51.05;23.25;;;0.90;99.90;;;-0.78;100.00;98699.81;4958109;28;20029;-79
2023/03/10 07:21:00;;;;;;;42.75;20.27;;;1.00;99.90;;;-0.76;100.00;98700.63;4950174;28;20080;-80
2023/03/10 07:23:26;;;;;;;54.85;26.15;;;1.00;99.90;;;-0.65;100.00;98701.09;4981518;28;20038;-80
2023/03/10 07:25:57;;;;;;;65.45;32.55;;;1.00;99.90;;;-0.67;100.00;98692.56;4958680;28;20026;-83
2023/03/10 07:28:36;;;;;;;48.85;24.52;;;1.00;99.90;;;-0.68;100.00;98699.47;4986092;28;20047;-79
2023/03/10 07:31:12;;;;;;;50.10;24.10;;;1.10;99.90;;;-0.68;100.00;98696.03;4970169;28;20038;-80
2023/03/10 07:33:38;;;;;;;45.75;21.13;;;0.90;99.90;;;-0.86;100.00;98688.00;4963922;28;20055;-79
2023/03/10 07:36:07;;;;;;;58.13;30.85;;;0.90;99.90;;;-0.75;100.00;98695.41;4960176;28;20038;-79
2023/03/10 07:38:36;;;;;;;40.17;20.42;;;1.00;99.90;;;-0.80;100.00;98686.09;4969445;28;20041;-79
2023/03/10 07:41:17;;;;;;;48.33;24.55;;;1.00;99.90;;;-0.77;100.00;98689.44;5007063;28;20030;-80
2023/03/10 07:43:43;;;;;;;30.73;13.65;;;1.00;99.90;;;-0.79;100.00;98691.22;5008967;28;20042;-80
2023/03/10 07:46:13;;;;;;;50.08;25.25;;;1.00;99.90;;;-0.66;100.00;98689.94;5014119;28;20041;-79
2023/03/10 07:48:48;;;;;;;37.53;16.35;;;1.10;99.90;;;-0.63;100.00;98686.38;4984013;28;20136;-79
2023/03/10 07:51:14;;;;;;;48.87;26.10;;;1.00;99.90;;;-0.64;100.00;98689.88;4973382;28;20041;-80
2023/03/10 07:53:40;;;;;;;43.65;21.30;;;1.10;99.90;;;-0.57;100.00;98686.19;5011201;28;20038;-80
2023/03/10 07:56:10;;;;;;;49.42;24.60;;;1.20;99.90;;;-0.45;100.00;98685.78;4952288;28;20163;-79
2023/03/10 07:58:37;;;;;;;33.92;15.15;;;1.30;99.90;;;-0.50;100.00;98685.06;4972257;28;20411;-80
2023/03/10 08:01:07;;;;;;;46.65;26.02;;;1.20;99.90;;;-0.39;100.00;98687.28;5011734;28;20325;-79
2023/03/10 08:03:34;;;;;;;45.30;23.00;;;1.30;99.90;;;-0.37;100.00;98687.25;4973055;28;20037;-78
2023/03/10 08:06:04;;;;;;;31.50;15.70;;;1.30;99.90;;;-0.25;100.00;98684.25;4980106;28;20033;-79
2023/03/10 08:08:30;;;;;;;34.50;16.58;;;;;;;-0.29;100.00;98685.25;4991674;28;20035;-79
2023/03/10 08:11:11;;;;;;;48.20;27.75;;;1.50;99.90;;;-0.07;100.00;98688.75;4991665;28;20041;-78
2023/03/10 08:13:38;;;;;;;47.33;26.38;;;1.50;99.90;;;-0.04;100.00;98687.81;4968902;28;20664;-79
2023/03/10 08:16:05;;;;;;;38.55;21.45;;;1.60;99.90;;;-0.06;100.00;98684.44;4968293;28;20033;-79
2023/03/10 08:18:38;;;;;;;32.67;16.00;;;1.50;99.90;;;-0.18;100.00;98682.28;4962850;28;20041;-80
2023/03/10 08:21:06;;;;;;;31.52;16.77;;;1.50;99.90;;;-0.23;100.00;98695.38;4959893;28;21121;-80
2023/03/10 08:23:33;;;;;;;35.75;19.65;;;1.40;99.90;;;-0.21;100.00;98691.84;4956888;28;20029;-79
2023/03/10 08:26:04;;;;;;;43.85;24.88;;;1.50;99.90;;;-0.10;100.00;98690.63;4987595;28;20041;-79
2023/03/10 08:28:32;;;;;;;37.08;17.77;;;1.50;99.90;;;-0.13;100.00;98689.00;4967359;28;20046;-79
2023/03/10 08:30:58;;;;;;;44.38;24.80;;;1.50;99.90;;;-0.16;100.00;98694.25;4992190;28;20040;-79
2023/03/10 08:33:27;;;;;;;45.35;23.98;;;1.40;99.90;;;-0.24;100.00;98680.75;4990793;28;20042;-78
2023/03/10 08:36:13;;;;;;;25.38;10.80;;;1.50;99.90;;;-0.32;100.00;98685.38;5016721;28;20042;-79
2023/03/10 08:38:39;;;;;;;46.88;24.30;;;1.50;99.90;;;-0.10;100.00;98693.22;5012238;28;20031;-79
2023/03/10 08:41:41;;;;;;;40.40;23.65;;;1.50;99.90;;;-0.03;100.00;98700.66;4959722;28;20873;-78
2023/03/10 08:44:17;;;;;;;43.25;22.38;;;1.60;99.90;;;0.05;100.00;98697.00;4986811;28;20036;-79
2023/03/10 08:46:55;;;;;;;38.08;18.08;;;1.60;99.90;;;0.02;100.00;98694.50;4981215;28;20040;-78
2023/03/10 08:49:21;;;;;;;30.17;15.13;;;1.70;99.90;;;-0.02;100.00;98693.78;4972009;28;20041;-77
2023/03/10 08:51:48;;;;;;;47.15;25.73;;;1.60;99.90;;;0.13;100.00;98693.22;4990292;28;20523;-78
2023/03/10 08:54:20;;;;;;;49.88;26.90;;;1.70;99.90;;;0.10;100.00;98695.06;4971703;28;20128;-79
2023/03/10 08:56:46;;;;;;;43.33;23.10;;;1.70;99.90;;;0.04;100.00;98703.88;4956352;28;20037;-79
2023/03/10 08:59:12;;;;;;;37.08;20.08;;;1.70;99.90;;;0.02;100.00;98697.91;4986816;28;20037;-78
2023/03/10 09:01:38;;;;;;;31.90;18.25;;;1.70;99.90;;;0.00;100.00;98697.16;4999615;28;20034;-77
2023/03/10 09:04:14;;;;;;;27.95;15.05;;;1.60;99.90;;;-0.01;100.00;98698.03;4996259;28;20080;-78
2023/03/10 09:06:40;;;;;;;39.63;22.70;;;1.60;99.90;;;0.08;100.00;98678.75;4975188;28;20077;-78
2023/03/10 09:09:11;;;;;;;41.28;24.08;;;1.70;99.90;;;0.18;100.00;98693.03;4994116;28;20087;-78
2023/03/10 09:11:42;;;;;;;31.98;17.83;;;1.60;99.90;;;0.01;100.00;98700.59;4980263;28;20034;-81
2023/03/10 09:14:16;;;;;;;29.98;17.42;;;1.60;99.90;;;-0.01;100.00;98693.69;4969749;28;20558;-80
2023/03/10 09:16:44;;;;;;;20.60;11.05;;;1.60;99.90;;;0.02;100.00;98684.97;4996610;28;20057;-79
2023/03/10 09:19:11;;;;;;;38.55;22.70;;;1.60;99.90;;;0.09;100.00;98683.88;5014130;28;20041;-79
2023/03/10 09:21:37;;;;;;;46.05;26.88;;;1.80;99.90;;;0.34;100.00;98683.78;5017918;28;20042;-80
2023/03/10 09:24:11;;;;;;;45.47;25.50;;;1.80;99.90;;;0.31;100.00;98681.34;4963257;28;20037;-79
2023/03/10 09:26:40;;;;;;;37.53;23.55;;;1.90;99.90;;;0.44;100.00;98681.72;4944842;28;20031;-79
2023/03/10 09:29:09;;;;;;;26.70;15.15;;;1.90;99.90;;;0.22;100.00;98676.50;4975829;28;20045;-79
2023/03/10 09:31:45;;;;;;;38.00;22.10;;;1.80;99.90;;;0.28;100.00;98685.78;5001965;28;20029;-80
2023/03/10 09:34:15;;;;;;;36.97;19.38;;;1.70;99.90;;;0.12;100.00;98688.09;4965216;28;20044;-81
2023/03/10 09:36:45;;;;;;;38.78;20.85;;;1.80;99.90;;;0.25;100.00;98686.72;4987662;28;20041;-79
2023/03/10 09:39:12;;;;;;;35.40;21.33;;;1.70;99.90;;;0.13;100.00;98690.63;4974696;28;20158;-78
2023/03/10 09:42:23;;;;;;;36.83;20.50;;;1.80;99.90;;;0.26;100.00;98688.44;4985845;28;20029;-78
2023/03/10 09:45:09;;;;;;;30.25;17.13;;;1.90;99.90;;;0.26;100.00;98682.38;4979148;28;20063;-77
2023/03/10 09:48:17;;;;;;;27.63;13.05;;;1.90;99.90;;;0.23;100.00;98692.88;4986567;28;20498;-79
2023/03/10 09:50:52;;;;;;;28.85;16.05;;;;;;;0.01;100.00;98678.13;4977021;28;20079;-79
2023/03/10 09:53:32;;;;;;;25.98;15.70;;;1.70;99.90;;;-0.03;100.00;98689.50;4995551;28;20041;-77
2023/03/10 09:56:01;;;;;;;28.40;13.85;;;1.40;99.90;;;-0.06;100.00;98694.78;4984697;28;20037;-81
2023/03/10 09:58:40;;;;;;;26.95;15.55;;;1.80;99.90;;;0.07;100.00;98692.59;4963354;28;20911;-79
2023/03/10 10:01:24;;;;;;;33.58;19.88;;;1.80;99.90;;;0.25;100.00;98696.25;4974896;28;20065;-78
2023/03/10 10:04:19;;;;;;;44.50;24.25;;;1.90;99.90;;;0.45;100.00;98704.09;4993493;28;20029;-76
2023/03/10 10:06:51;;;;;;;36.35;20.88;;;1.90;99.90;;;0.34;100.00;98694.16;5013462;28;20046;-77
2023/03/10 10:09:44;;;;;;;32.40;19.70;;;1.90;99.90;;;0.11;100.00;98695.03;5004051;28;20038;-77
2023/03/10 10:12:14;;;;;;;41.63;22.77;;;1.80;99.90;;;-0.05;100.00;98694.72;5003143;28;20232;-79
2023/03/10 10:14:40;;;;;;;34.90;21.75;;;1.80;99.90;;;-0.03;100.00;98698.09;4994378;28;20042;-78
2023/03/10 10:18:03;;;;;;;34.40;17.83;;;1.90;99.90;;;0.26;100.00;98698.78;4978786;28;20045;-78
2023/03/10 10:20:45;;;;;;;42.90;23.92;;;2.00;99.90;;;0.31;100.00;98699.44;5006768;28;20058;-78
2023/03/10 10:23:45;;;;;;;36.97;23.10;;;1.90;99.90;;;0.25;100.00;98689.31;5020790;28;20671;-78
2023/03/10 10:26:25;;;;;;;34.78;19.50;;;1.90;99.90;;;0.05;100.00;98679.72;4960419;28;20046;-78